createdAt,value
2017-11-10T00:02:11.792Z,42.00
2017-11-10T00:04:44.109Z,40.90
2017-11-10T00:07:17.352Z,40.50
2017-11-10T00:09:49.861Z,41.80
2017-11-10T00:12:22.407Z,40.77
2017-11-10T00:14:55.688Z,39.77
2017-11-10T00:17:28.081Z,41.20
2017-11-10T00:20:01.210Z,39.73
2017-11-10T00:22:33.543Z,39.70
2017-11-10T00:25:06.039Z,40.37
2017-11-10T00:27:38.593Z,42.03
2017-11-10T00:30:11.057Z,37.77
2017-11-10T00:32:43.470Z,40.90
2017-11-10T00:35:15.819Z,40.27
2017-11-10T00:37:48.464Z,42.37
2017-11-10T00:40:20.917Z,43.07
2017-11-10T00:42:53.268Z,43.70
2017-11-10T00:45:25.604Z,42.20
2017-11-10T00:47:58.109Z,43.40
2017-11-10T00:50:30.646Z,44.90
2017-11-10T00:53:03.076Z,42.60
2017-11-10T00:55:36.120Z,48.40
2017-11-10T00:58:08.589Z,47.17
2017-11-10T01:00:41.695Z,46.30
2017-11-10T01:03:13.975Z,49.30
2017-11-10T01:05:46.356Z,49.03
2017-11-10T01:08:18.832Z,47.17
2017-11-10T01:10:51.329Z,50.20
2017-11-10T01:13:24.421Z,48.20
2017-11-10T01:15:57.189Z,53.80
2017-11-10T01:18:29.686Z,49.80
2017-11-10T01:21:02.263Z,50.60
2017-11-10T01:23:34.633Z,49.70
2017-11-10T01:26:07.846Z,50.27
2017-11-10T01:28:40.196Z,50.30
2017-11-10T01:31:12.475Z,48.80
2017-11-10T01:33:45.594Z,51.53
2017-11-10T01:36:18.002Z,50.10
2017-11-10T01:38:50.513Z,50.27
2017-11-10T01:41:23.104Z,49.97
2017-11-10T01:43:56.184Z,50.33
2017-11-10T01:46:29.324Z,48.40
2017-11-10T01:49:01.781Z,47.10
2017-11-10T01:51:35.084Z,46.30
2017-11-10T01:54:07.506Z,41.37
2017-11-10T01:56:41.404Z,45.50
2017-11-10T01:59:13.927Z,46.93
2017-11-10T02:01:46.524Z,45.30
2017-11-10T02:04:18.888Z,43.40
2017-11-10T02:06:51.394Z,42.10
2017-11-10T02:09:24.494Z,40.87
2017-11-10T02:11:57.608Z,40.20
2017-11-10T02:14:30.055Z,43.40
2017-11-10T02:17:02.400Z,41.50
2017-11-10T02:19:34.764Z,41.87
2017-11-10T02:22:07.068Z,43.43
2017-11-10T02:24:39.440Z,43.13
2017-11-10T02:27:11.934Z,41.30
2017-11-10T02:29:44.512Z,41.33
2017-11-10T02:32:17.134Z,41.13
2017-11-10T02:34:50.704Z,43.97
2017-11-10T02:37:23.111Z,41.90
2017-11-10T02:39:55.494Z,45.13
2017-11-10T02:42:27.976Z,43.70
2017-11-10T02:45:01.086Z,42.67
2017-11-10T02:47:34.322Z,41.87
2017-11-10T02:50:06.874Z,39.80
2017-11-10T02:52:40.088Z,36.73
2017-11-10T02:55:12.484Z,39.43
2017-11-10T02:57:45.745Z,41.43
2017-11-10T03:00:18.204Z,39.70
2017-11-10T03:02:50.607Z,40.10
2017-11-10T03:05:23.112Z,43.20
2017-11-10T03:07:55.543Z,42.47
2017-11-10T03:10:27.887Z,38.80
2017-11-10T03:13:00.328Z,40.60
2017-11-10T03:15:32.704Z,38.60
2017-11-10T03:18:05.132Z,36.90
2017-11-10T03:20:37.524Z,35.63
2017-11-10T03:23:10.724Z,33.87
2017-11-10T03:25:43.857Z,35.47
2017-11-10T03:28:16.404Z,35.13
2017-11-10T03:30:49.450Z,32.30
2017-11-10T03:33:22.700Z,32.13
2017-11-10T03:35:55.328Z,33.67
2017-11-10T03:38:28.744Z,35.40
2017-11-10T03:41:01.284Z,32.83
2017-11-10T03:43:33.695Z,34.10
2017-11-10T03:46:06.099Z,34.47
2017-11-10T03:48:38.562Z,36.67
2017-11-10T03:51:10.984Z,36.87
2017-11-10T03:53:43.394Z,38.20
2017-11-10T04:05:07.527Z,39.50
2017-11-10T04:07:40.161Z,40.53
2017-11-10T04:10:12.439Z,40.27
2017-11-10T04:12:44.772Z,39.07
2017-11-10T04:15:17.177Z,36.63
2017-11-10T04:17:50.569Z,37.83
2017-11-10T04:20:23.202Z,36.50
2017-11-10T04:22:55.722Z,40.37
2017-11-10T04:25:28.991Z,40.10
2017-11-10T04:28:03.147Z,38.53
2017-11-10T04:30:35.681Z,40.33
2017-11-10T04:33:08.016Z,37.90
2017-11-10T04:35:40.293Z,38.63
2017-11-10T04:38:12.835Z,37.80
2017-11-10T04:40:45.401Z,38.10
2017-11-10T04:43:17.845Z,36.90
2017-11-10T04:45:50.324Z,39.73
2017-11-10T04:48:22.800Z,39.10
2017-11-10T04:50:55.231Z,39.00
2017-11-10T04:53:27.713Z,41.10
2017-11-10T04:56:04.450Z,41.60
2017-11-10T04:58:37.727Z,41.67
2017-11-10T05:01:10.892Z,43.30
2017-11-10T05:03:43.270Z,44.43
2017-11-10T05:06:15.730Z,43.67
2017-11-10T05:08:48.093Z,41.90
2017-11-10T05:11:20.483Z,46.83
2017-11-10T05:13:52.963Z,44.70
2017-11-10T05:16:26.144Z,44.27
2017-11-10T05:18:59.184Z,45.07
2017-11-10T05:21:31.665Z,43.77
2017-11-10T05:24:04.264Z,46.37
2017-11-10T05:26:36.592Z,37.90
2017-11-10T05:29:09.067Z,42.57
2017-11-10T05:31:41.474Z,43.63
2017-11-10T05:34:13.939Z,42.20
2017-11-10T05:36:46.369Z,44.93
2017-11-10T05:39:19.498Z,43.70
2017-11-10T05:41:51.887Z,43.73
2017-11-10T05:44:24.206Z,41.27
2017-11-10T05:46:56.741Z,40.77
2017-11-10T05:49:29.124Z,42.43
2017-11-10T05:52:01.565Z,41.80
2017-11-10T05:54:34.773Z,42.07
2017-11-10T05:57:07.158Z,42.37
2017-11-10T05:59:39.638Z,40.20
2017-11-10T06:02:12.163Z,37.90
2017-11-10T06:04:44.567Z,38.13
2017-11-10T06:07:16.884Z,40.33
2017-11-10T06:09:50.078Z,42.43
2017-11-10T06:12:22.506Z,42.30
2017-11-10T06:14:55.714Z,37.97
2017-11-10T06:17:28.130Z,37.27
2017-11-10T06:20:01.475Z,40.07
2017-11-10T06:22:34.088Z,38.03
2017-11-10T06:25:06.584Z,40.37
2017-11-10T06:27:38.899Z,39.80
2017-11-10T06:30:12.149Z,40.90
2017-11-10T06:32:44.585Z,38.83
2017-11-10T06:35:17.030Z,38.67
2017-11-10T06:37:49.392Z,38.90
2017-11-10T06:40:21.861Z,38.13
2017-11-10T06:42:54.263Z,38.40
2017-11-10T06:45:26.761Z,38.17
2017-11-10T06:47:59.158Z,41.13
2017-11-10T06:50:31.696Z,37.57
2017-11-10T06:53:04.087Z,38.23
2017-11-10T06:55:36.616Z,33.93
2017-11-10T06:58:09.149Z,37.90
2017-11-10T07:00:41.542Z,36.63
2017-11-10T07:03:13.990Z,36.27
2017-11-10T07:05:46.361Z,34.30
2017-11-10T07:08:18.830Z,33.87
2017-11-10T07:10:51.454Z,35.43
2017-11-10T07:13:23.866Z,34.50
2017-11-10T07:15:56.323Z,35.00
2017-11-10T07:18:28.745Z,34.60
2017-11-10T07:21:01.158Z,33.77
2017-11-10T07:23:33.624Z,32.40
2017-11-10T07:26:06.097Z,31.20
2017-11-10T07:28:39.284Z,32.30
2017-11-10T07:31:11.807Z,33.07
2017-11-10T07:33:44.364Z,33.03
2017-11-10T07:36:17.554Z,30.53
2017-11-10T07:38:49.958Z,32.00
2017-11-10T07:44:02.252Z,31.67
2017-11-10T07:46:34.671Z,32.17
2017-11-10T07:49:07.837Z,30.30
2017-11-10T07:51:40.379Z,27.37
2017-11-10T07:54:12.776Z,28.57
2017-11-10T07:56:45.289Z,29.90
2017-11-10T07:59:18.108Z,30.20
2017-11-10T08:01:50.588Z,29.27
2017-11-10T08:04:23.042Z,30.70
2017-11-10T08:06:55.509Z,31.60
2017-11-10T08:09:27.864Z,32.10
2017-11-10T08:12:01.130Z,29.13
2017-11-10T08:14:33.647Z,26.93
2017-11-10T08:17:06.778Z,26.00
2017-11-10T08:19:39.926Z,27.00
2017-11-10T08:22:12.456Z,27.00
2017-11-10T08:24:44.733Z,27.00
2017-11-10T08:27:17.348Z,27.53
2017-11-10T08:29:49.730Z,25.77
2017-11-10T08:32:22.168Z,25.87
2017-11-10T08:34:54.460Z,27.30
2017-11-10T08:37:26.870Z,24.60
2017-11-10T08:39:59.250Z,24.67
2017-11-10T08:42:31.695Z,25.10
2017-11-10T08:45:04.810Z,25.27
2017-11-10T08:47:45.144Z,25.40
2017-11-10T08:50:17.540Z,24.27
2017-11-10T08:52:50.087Z,23.10
2017-11-10T08:55:22.454Z,26.43
2017-11-10T08:57:54.919Z,21.87
2017-11-10T09:00:27.259Z,22.73
2017-11-10T09:03:00.416Z,23.67
2017-11-10T09:05:33.060Z,22.00
2017-11-10T09:08:05.390Z,23.03
2017-11-10T09:10:37.813Z,21.70
2017-11-10T09:13:10.916Z,23.37
2017-11-10T09:15:43.205Z,22.73
2017-11-10T09:18:16.352Z,22.90
2017-11-10T09:20:48.712Z,22.83
2017-11-10T09:23:21.240Z,22.83
2017-11-10T09:25:53.818Z,21.87
2017-11-10T09:31:56.607Z,22.27
2017-11-10T09:37:31.715Z,25.67
2017-11-10T09:40:10.941Z,27.23
2017-11-10T09:42:48.094Z,24.73
2017-11-10T09:48:32.653Z,25.00
2017-11-10T09:51:11.332Z,23.53
2017-11-10T09:56:49.483Z,24.60
2017-11-10T09:59:24.439Z,23.57
2017-11-10T10:02:03.025Z,23.17
2017-11-10T10:07:52.103Z,21.87
2017-11-10T10:10:30.619Z,20.70
2017-11-10T10:13:06.111Z,22.50
2017-11-10T10:18:58.833Z,20.77
2017-11-10T10:21:46.142Z,19.10
2017-11-10T10:24:18.541Z,20.17
2017-11-10T10:26:50.971Z,19.83
2017-11-10T10:29:23.387Z,20.70
2017-11-10T10:31:55.767Z,19.80
2017-11-10T10:34:29.127Z,27.13
2017-11-10T10:37:01.637Z,20.80
2017-11-10T10:39:34.648Z,18.60
2017-11-10T10:42:07.067Z,19.10
2017-11-10T10:44:39.656Z,18.27
2017-11-10T10:47:12.072Z,17.90
2017-11-10T10:49:44.532Z,17.90
2017-11-10T10:52:16.949Z,19.73
2017-11-10T10:54:50.160Z,17.80
2017-11-10T10:57:23.408Z,19.43
2017-11-10T10:59:55.863Z,20.93
2017-11-10T11:02:28.949Z,19.77
2017-11-10T11:05:01.401Z,18.20
2017-11-10T11:07:33.902Z,17.93
2017-11-10T11:10:06.252Z,18.20
2017-11-10T11:12:38.614Z,18.27
2017-11-10T11:15:11.275Z,18.40
2017-11-10T11:17:43.817Z,18.63
2017-11-10T11:20:16.414Z,18.27
2017-11-10T11:22:48.887Z,19.03
2017-11-10T11:25:22.171Z,17.17
2017-11-10T11:27:55.200Z,18.23
2017-11-10T11:30:27.578Z,20.23
2017-11-10T11:33:01.371Z,18.33
2017-11-10T11:35:33.705Z,20.37
2017-11-10T11:38:06.272Z,18.40
2017-11-10T11:40:38.594Z,18.13
2017-11-10T11:43:10.997Z,17.40
2017-11-10T11:45:43.730Z,16.10
2017-11-10T11:48:16.476Z,15.97
2017-11-10T11:50:48.822Z,17.07
2017-11-10T11:53:21.891Z,18.00
2017-11-10T11:55:54.808Z,18.00
2017-11-10T11:58:27.305Z,17.87
2017-11-10T12:01:00.421Z,17.50
2017-11-10T12:03:32.943Z,16.90
2017-11-10T12:06:06.253Z,17.07
2017-11-10T12:08:39.765Z,16.53
2017-11-10T12:11:13.061Z,16.90
2017-11-10T12:13:45.607Z,15.67
2017-11-10T12:16:18.212Z,17.30
2017-11-10T12:18:51.682Z,16.47
2017-11-10T12:21:24.153Z,17.27
2017-11-10T12:23:56.597Z,18.27
2017-11-10T12:26:28.957Z,17.17
2017-11-10T12:29:02.084Z,16.80
2017-11-10T12:31:35.356Z,19.00
2017-11-10T12:34:07.855Z,18.40
2017-11-10T12:36:40.372Z,20.00
2017-11-10T12:39:12.765Z,18.60
2017-11-10T12:41:45.011Z,18.73
2017-11-10T12:44:18.074Z,18.10
2017-11-10T12:46:51.581Z,18.57
2017-11-10T12:49:24.157Z,17.63
2017-11-10T12:51:56.871Z,18.43
2017-11-10T12:54:29.246Z,17.70
2017-11-10T12:57:01.703Z,18.70
2017-11-10T12:59:34.127Z,18.30
2017-11-10T13:02:07.790Z,18.37
2017-11-10T13:04:40.475Z,16.87
2017-11-10T13:07:13.222Z,18.23
2017-11-10T13:09:45.868Z,19.13
2017-11-10T13:12:18.594Z,18.70
2017-11-10T13:14:51.139Z,16.50
2017-11-10T13:17:23.598Z,18.20
2017-11-10T13:19:56.460Z,18.57
2017-11-10T13:22:29.773Z,18.27
2017-11-10T13:25:03.010Z,17.83
2017-11-10T13:27:35.496Z,17.87
2017-11-10T13:30:13.683Z,19.17
2017-11-10T13:32:47.088Z,18.87
2017-11-10T13:35:19.631Z,18.57
2017-11-10T13:37:52.042Z,20.43
2017-11-10T13:40:24.395Z,17.93
2017-11-10T13:42:58.485Z,16.90
2017-11-10T13:45:31.755Z,15.47
2017-11-10T13:48:04.181Z,16.80
2017-11-10T13:50:36.951Z,16.10
2017-11-10T13:53:10.285Z,16.10
2017-11-10T13:55:43.607Z,14.90
2017-11-10T13:58:16.021Z,15.10
2017-11-10T14:00:48.434Z,14.50
2017-11-10T14:03:20.893Z,14.83
2017-11-10T14:05:53.310Z,13.90
2017-11-10T14:08:26.630Z,14.07
2017-11-10T14:10:59.336Z,13.37
2017-11-10T14:13:32.563Z,12.77
2017-11-10T14:16:06.005Z,12.63
2017-11-10T14:18:38.544Z,17.43
2017-11-10T14:21:11.048Z,13.70
2017-11-10T14:23:43.485Z,13.83
2017-11-10T14:26:15.892Z,13.00
2017-11-10T14:28:48.271Z,11.13
2017-11-10T14:31:20.668Z,11.77
2017-11-10T14:33:53.104Z,12.30
2017-11-10T14:36:25.506Z,11.60
2017-11-10T14:38:58.501Z,13.80
2017-11-10T14:41:31.221Z,10.13
2017-11-10T14:44:03.693Z,11.57
2017-11-10T14:46:36.178Z,13.80
2017-11-10T14:49:09.265Z,11.83
2017-11-10T14:51:41.738Z,10.57
2017-11-10T14:54:14.291Z,9.83
2017-11-10T14:56:47.154Z,10.77
2017-11-10T14:59:19.441Z,10.73
2017-11-10T15:01:51.964Z,10.73
2017-11-10T15:04:25.222Z,11.83
2017-11-10T15:06:58.335Z,10.10
2017-11-10T15:09:31.588Z,9.53
2017-11-10T15:12:04.223Z,10.97
2017-11-10T15:14:36.752Z,10.80
2017-11-10T15:17:09.870Z,10.40
2017-11-10T15:19:42.348Z,10.97
2017-11-10T15:22:14.890Z,9.90
2017-11-10T15:24:47.404Z,10.10
2017-11-10T15:27:19.944Z,9.97
2017-11-10T15:29:46.230Z,10.13
2017-11-10T15:32:13.405Z,10.53
2017-11-10T15:34:40.483Z,10.20
2017-11-10T15:37:06.900Z,11.30
2017-11-10T15:39:33.189Z,10.80
2017-11-10T15:42:00.443Z,10.90
2017-11-10T15:44:26.746Z,11.40
2017-11-10T15:46:53.004Z,10.90
2017-11-10T15:49:19.286Z,12.80
2017-11-10T15:51:45.647Z,13.33
2017-11-10T15:54:12.083Z,10.33
2017-11-10T15:56:38.364Z,12.63
2017-11-10T15:59:04.815Z,11.57
2017-11-10T16:01:31.072Z,11.20
2017-11-10T16:03:58.132Z,11.47
2017-11-10T16:06:24.448Z,11.27
2017-11-10T16:08:50.730Z,11.83
2017-11-10T16:11:17.028Z,13.43
2017-11-10T16:13:43.316Z,11.10
2017-11-10T16:16:09.572Z,12.20
2017-11-10T16:18:35.857Z,10.93
2017-11-10T16:21:02.156Z,11.57
2017-11-10T16:23:28.419Z,13.07
2017-11-10T16:25:54.676Z,11.53
2017-11-10T16:28:21.637Z,12.33
2017-11-10T16:30:47.873Z,12.70
2017-11-10T16:33:14.087Z,11.10
2017-11-10T16:35:41.076Z,10.20
2017-11-10T16:38:08.115Z,9.63
2017-11-10T16:40:34.423Z,10.50
2017-11-10T16:43:00.646Z,9.37
2017-11-10T16:45:27.634Z,9.53
2017-11-10T16:47:53.892Z,9.23
2017-11-10T16:50:20.151Z,9.20
2017-11-10T16:52:46.371Z,13.47
2017-11-10T16:55:12.588Z,11.73
2017-11-10T16:57:39.604Z,11.60
2017-11-10T17:00:05.863Z,12.00
2017-11-10T17:02:32.862Z,9.20
2017-11-10T17:04:59.544Z,9.80
2017-11-10T17:07:25.955Z,10.07
2017-11-10T17:09:52.172Z,10.63
2017-11-10T17:12:18.441Z,10.13
2017-11-10T17:14:45.709Z,10.90
2017-11-10T17:17:11.966Z,11.50
2017-11-10T17:19:39.357Z,11.10
2017-11-10T17:22:05.622Z,10.00
2017-11-10T17:24:31.966Z,10.63
2017-11-10T17:26:58.301Z,15.00
2017-11-10T17:29:31.844Z,12.47
2017-11-10T17:31:58.245Z,9.87
2017-11-10T17:34:24.653Z,8.83
2017-11-10T17:36:51.013Z,6.80
2017-11-10T17:39:18.940Z,4.67
2017-11-10T17:41:45.353Z,7.83
2017-11-10T17:44:12.509Z,7.60
2017-11-10T17:46:38.829Z,6.70
2017-11-10T17:49:05.829Z,7.63
2017-11-10T17:51:32.081Z,7.27
2017-11-10T17:53:58.424Z,6.90
2017-11-10T17:56:25.610Z,7.73
2017-11-10T17:58:53.008Z,5.53
2017-11-10T18:01:20.145Z,5.50
2017-11-10T18:03:46.608Z,4.60
2017-11-10T18:06:12.938Z,3.93
2017-11-10T18:08:40.808Z,4.00
2017-11-10T18:11:08.289Z,2.07
2017-11-10T18:13:34.689Z,2.60
2017-11-10T18:16:01.254Z,2.30
2017-11-10T18:18:27.564Z,2.40
2017-11-10T18:20:54.712Z,2.20
2017-11-10T18:23:21.705Z,2.50
2017-11-10T18:25:47.947Z,2.70
2017-11-10T18:28:14.161Z,2.77
2017-11-10T18:30:41.682Z,2.40
2017-11-10T18:33:08.718Z,2.40
2017-11-10T18:35:35.791Z,2.30
2017-11-10T18:38:05.124Z,2.43
2017-11-10T18:40:32.666Z,2.80
2017-11-10T18:42:59.845Z,3.13
2017-11-10T18:45:26.197Z,2.80
2017-11-10T18:47:53.273Z,3.00
2017-11-10T18:50:19.783Z,3.73
2017-11-10T18:52:46.182Z,3.30
2017-11-10T18:55:16.342Z,3.67
2017-11-10T18:57:42.663Z,3.10
2017-11-10T19:00:08.927Z,2.53
2017-11-10T19:02:35.193Z,4.87
2017-11-10T19:05:01.449Z,2.60
2017-11-10T19:07:27.739Z,3.20
2017-11-10T19:09:54.000Z,2.50
2017-11-10T19:12:20.302Z,3.67
2017-11-10T19:14:46.673Z,4.50
2017-11-10T19:17:13.703Z,3.00
2017-11-10T19:19:39.976Z,2.60
2017-11-10T19:22:06.317Z,5.23
2017-11-10T19:24:32.587Z,3.13
2017-11-10T19:26:58.869Z,3.10
2017-11-10T19:29:25.115Z,2.40
2017-11-10T19:31:51.411Z,3.97
2017-11-10T19:34:17.708Z,3.50
2017-11-10T19:36:43.992Z,3.87
2017-11-10T19:39:11.173Z,5.07
2017-11-10T19:41:37.485Z,3.10
2017-11-10T19:44:04.561Z,3.20
2017-11-10T19:46:30.834Z,3.37
2017-11-10T19:48:57.084Z,2.93
2017-11-10T19:51:23.353Z,3.23
2017-11-10T19:53:49.764Z,2.63
2017-11-10T19:56:16.095Z,3.43
2017-11-10T19:58:42.693Z,3.40
2017-11-10T20:01:08.967Z,3.60
2017-11-10T20:03:36.175Z,4.47
2017-11-10T20:06:02.494Z,2.37
2017-11-10T20:08:28.796Z,2.73
2017-11-10T20:10:55.904Z,2.40
2017-11-10T20:13:22.206Z,3.40
2017-11-10T20:15:48.485Z,3.50
2017-11-10T20:18:14.965Z,4.77
2017-11-10T20:20:41.221Z,3.40
2017-11-10T20:23:07.528Z,2.67
2017-11-10T20:25:33.954Z,4.10
2017-11-10T20:28:00.913Z,2.70
2017-11-10T20:30:27.321Z,2.67
2017-11-10T20:32:53.640Z,4.03
2017-11-10T20:35:19.939Z,2.73
2017-11-10T20:37:46.252Z,2.33
2017-11-10T20:40:13.259Z,2.40
2017-11-10T20:42:40.285Z,3.33
2017-11-10T20:45:06.570Z,3.70
2017-11-10T20:47:32.904Z,3.30
2017-11-10T20:49:59.981Z,3.60
2017-11-10T20:52:26.272Z,3.40
2017-11-10T20:54:52.544Z,3.60
2017-11-10T20:57:18.858Z,3.00
2017-11-10T20:59:45.358Z,2.50
2017-11-10T21:02:11.735Z,2.80
2017-11-10T21:04:38.989Z,2.83
2017-11-10T21:07:06.102Z,3.87
2017-11-10T21:09:32.360Z,3.43
2017-11-10T21:11:59.337Z,2.80
2017-11-10T21:14:26.332Z,3.03
2017-11-10T21:16:52.660Z,2.87
2017-11-10T21:19:19.063Z,3.00
2017-11-10T21:21:45.381Z,3.23
2017-11-10T21:24:12.580Z,2.50
2017-11-10T21:26:39.070Z,2.60
2017-11-10T21:29:05.458Z,2.40
2017-11-10T21:31:31.844Z,2.63
2017-11-10T21:33:58.138Z,3.60
2017-11-10T21:36:25.385Z,2.80
2017-11-10T21:38:51.854Z,2.60
2017-11-10T21:41:18.284Z,2.60
2017-11-10T21:43:45.411Z,2.97
2017-11-10T21:46:12.536Z,3.47
2017-11-10T21:48:39.063Z,3.17
2017-11-10T21:51:05.476Z,2.80
2017-11-10T21:53:32.001Z,3.40
2017-11-10T21:55:58.393Z,3.00
2017-11-10T21:58:24.935Z,2.60
2017-11-10T22:00:51.315Z,3.30
2017-11-10T22:03:17.636Z,5.70
2017-11-10T22:05:44.005Z,3.07
2017-11-10T22:08:11.199Z,2.33
2017-11-10T22:10:37.526Z,2.77
2017-11-10T22:13:03.903Z,2.83
2017-11-10T22:15:30.216Z,2.80
2017-11-10T22:17:56.492Z,2.90
2017-11-10T22:20:23.489Z,3.57
2017-11-10T22:22:49.898Z,3.07
2017-11-10T22:25:16.293Z,3.50
2017-11-10T22:27:43.468Z,2.83
2017-11-10T22:30:09.853Z,2.50
2017-11-10T22:32:36.892Z,2.90
2017-11-10T22:35:03.246Z,2.83
2017-11-10T22:37:29.611Z,2.73
2017-11-10T22:39:55.957Z,2.47
2017-11-10T22:42:22.390Z,2.13
2017-11-10T22:44:48.603Z,2.60
2017-11-10T22:47:14.973Z,4.80
2017-11-10T22:49:41.327Z,2.90
2017-11-10T22:52:07.708Z,1.93
2017-11-10T22:57:07.073Z,1.70
2017-11-10T22:59:33.580Z,1.90
2017-11-10T23:01:59.967Z,2.27
2017-11-10T23:04:26.447Z,2.63
2017-11-10T23:06:52.937Z,1.80
2017-11-10T23:09:19.390Z,1.30
2017-11-10T23:11:45.758Z,1.30
2017-11-10T23:14:12.610Z,2.00
2017-11-10T23:16:38.991Z,1.23
2017-11-10T23:19:05.260Z,2.90
2017-11-10T23:21:31.695Z,1.60
2017-11-10T23:23:58.082Z,1.60
2017-11-10T23:26:24.439Z,1.30
2017-11-10T23:28:50.834Z,1.70
2017-11-10T23:31:17.194Z,2.03
2017-11-10T23:33:43.613Z,1.97
2017-11-10T23:36:09.945Z,1.60
2017-11-10T23:38:36.188Z,1.77
2017-11-10T23:41:02.661Z,2.73
2017-11-10T23:43:29.773Z,1.70
2017-11-10T23:45:56.159Z,2.00
2017-11-10T23:48:22.574Z,1.70
2017-11-10T23:50:56.711Z,2.47
2017-11-10T23:53:23.838Z,2.03
2017-11-10T23:55:50.820Z,2.20
2017-11-10T23:58:17.140Z,2.70
